Time;durP1;ratioP1;P1;durP2;ratioP2;P2;SDS_P1;SDS_P2;PMS_P1;PMS_P2;Temp;Humidity;BMP_temperature;BMP_pressure;BME280_temperature;BME280_humidity;BME280_pressure;Samples;Min_cycle;Max_cycle;Signal;HPM_P1;HPM_P2
2021/03/30 00:01:53;;;;;;;7.23;5.30;;;;;;;8.69;100.00;102231.06;5050625;28;20219;-69
2021/03/30 00:04:19;;;;;;;7.90;5.50;;;;;;;8.55;100.00;102229.50;5051453;28;20202;-69
2021/03/30 00:06:44;;;;;;;9.20;6.57;;;;;;;8.61;100.00;102244.88;5032914;28;20604;-71
2021/03/30 00:09:10;;;;;;;7.10;4.53;;;;;;;8.56;100.00;102237.41;5050050;28;20175;-69
2021/03/30 00:11:36;;;;;;;7.83;4.83;;;;;;;8.68;100.00;102240.22;5032726;28;20235;-69
2021/03/30 00:14:02;;;;;;;7.20;5.10;;;;;;;8.61;100.00;102234.88;5043482;28;20697;-69
2021/03/30 00:16:30;;;;;;;8.67;5.30;;;;;;;8.56;100.00;102237.41;5066995;28;20230;-68
2021/03/30 00:18:56;;;;;;;8.17;5.10;;;;;;;8.30;100.00;102236.78;5069928;28;20235;-68
2021/03/30 00:21:21;;;;;;;8.37;5.77;;;;;;;8.20;100.00;102236.41;5070594;28;20226;-70
2021/03/30 00:23:50;;;;;;;9.03;5.63;;;;;;;8.25;100.00;102250.13;5070488;28;20199;-69
2021/03/30 00:26:17;;;;;;;8.93;5.50;;;;;;;8.12;100.00;102238.56;5070909;28;20227;-70
2021/03/30 00:28:43;;;;;;;9.30;5.83;;;;;;;8.22;100.00;102245.19;5037857;28;20702;-70
2021/03/30 00:31:11;;;;;;;9.37;6.30;;;;;;;8.22;100.00;102244.31;5054083;28;20219;-68
2021/03/30 00:33:36;;;;;;;8.13;5.60;;;;;;;8.16;100.00;102243.31;5070164;28;20219;-69
2021/03/30 00:36:04;;;;;;;10.73;5.50;;;;;;;8.20;100.00;102241.81;5071056;28;20688;-69
2021/03/30 00:38:30;;;;;;;8.67;5.53;;;;;;;8.03;100.00;102241.72;5070693;28;20218;-71
2021/03/30 00:40:58;;;;;;;10.33;5.50;;;;;;;7.96;100.00;102240.91;5073112;28;20227;-69
2021/03/30 00:43:26;;;;;;;8.93;5.83;;;;;;;7.92;100.00;102245.94;5055896;28;20229;-69
2021/03/30 00:45:54;;;;;;;9.13;5.87;;;;;;;7.93;100.00;102244.03;5072535;28;20285;-69
2021/03/30 00:48:23;;;;;;;10.33;6.10;;;;;;;8.03;100.00;102244.44;5069660;28;20195;-69
2021/03/30 00:50:50;;;;;;;8.00;5.50;;;;;;;8.11;100.00;102232.34;5036474;28;20218;-68
2021/03/30 00:53:36;;;;;;;8.23;5.30;;;;;;;8.10;100.00;102246.91;5068747;28;20706;-67
2021/03/30 00:56:22;;;;;;;6.00;5.30;;;;;;;8.04;100.00;102244.22;5041328;28;20225;-69
2021/03/30 00:58:50;;;;;;;7.07;5.00;;;;;;;7.89;100.00;102242.81;5069725;28;20187;-69
2021/03/30 01:01:20;;;;;;;8.90;5.17;;;;;;;7.75;100.00;102241.25;5053026;28;20237;-68
2021/03/30 01:03:45;;;;;;;6.83;5.27;;;;;;;7.69;100.00;102239.38;5070253;28;20202;-67
2021/03/30 01:06:13;;;;;;;10.83;5.20;;;;;;;7.65;100.00;102245.44;5051948;28;20227;-67
2021/03/30 01:09:16;;;;;;;7.90;5.47;;;;;;;7.68;100.00;102246.66;5069745;28;20263;-67
2021/03/30 01:12:07;;;;;;;10.00;5.43;;;;;;;7.55;100.00;102240.50;5068130;28;20302;-68
2021/03/30 01:14:46;;;;;;;7.57;5.10;;;;;;;7.51;100.00;102239.28;5084796;28;20183;-67
2021/03/30 01:17:30;;;;;;;5.87;5.23;;;;;;;7.56;100.00;102244.84;5052424;28;20323;-68
2021/03/30 01:20:06;;;;;;;8.27;5.30;;;;;;;7.56;100.00;102244.84;5069529;28;20224;-68
2021/03/30 01:23:05;;;;;;;8.33;6.00;;;;;;;7.50;100.00;102248.41;5068108;28;20214;-67
2021/03/30 01:25:31;;;;;;;9.83;5.57;;;;;;;7.30;100.00;102236.81;5069175;28;20333;-68
2021/03/30 01:28:06;;;;;;;8.97;6.03;;;;;;;7.31;100.00;102243.91;5069066;28;20189;-70
2021/03/30 01:30:34;;;;;;;9.10;6.60;;;;;;;7.35;100.00;102239.72;5052801;28;20223;-67
2021/03/30 01:33:18;;;;;;;8.30;5.53;;;;;;;7.30;100.00;102244.94;5035172;28;20252;-68
2021/03/30 01:35:48;;;;;;;6.67;5.20;;;;;;;7.34;100.00;102229.13;5037150;28;20222;-68
2021/03/30 01:38:13;;;;;;;9.93;5.60;;;;;;;7.37;100.00;102232.22;5036012;28;20214;-68
2021/03/30 01:40:39;;;;;;;9.17;5.80;;;;;;;7.47;100.00;102229.94;5051740;28;20738;-67
2021/03/30 01:43:06;;;;;;;9.07;5.67;;;;;;;7.54;100.00;102230.72;5051855;28;20817;-68
2021/03/30 01:45:32;;;;;;;8.03;5.60;;;;;;;7.49;100.00;102222.44;5068194;28;20648;-68
2021/03/30 01:47:58;;;;;;;7.93;5.63;;;;;;;7.47;100.00;102229.94;5068946;28;20195;-67
2021/03/30 01:50:23;;;;;;;7.60;5.20;;;;;;;7.47;100.00;102238.03;5035055;28;20188;-67
2021/03/30 01:52:49;;;;;;;7.10;5.20;;;;;;;7.41;100.00;102233.47;5051961;28;20567;-67
2021/03/30 01:55:16;;;;;;;7.23;4.67;;;;;;;7.33;100.00;102235.59;5023246;28;20178;-67
2021/03/30 01:57:45;;;;;;;9.03;4.90;;;;;;;7.32;100.00;102233.91;5023593;28;20214;-68
2021/03/30 02:00:16;;;;;;;11.27;5.20;;;;;;;7.33;100.00;102231.00;5041260;28;20248;-68
2021/03/30 02:02:44;;;;;;;8.57;4.47;;;;;;;7.43;100.00;102231.38;5038856;28;20636;-68
2021/03/30 02:05:11;;;;;;;6.93;5.10;;;;;;;7.32;100.00;102232.03;5038757;28;20300;-69
2021/03/30 02:07:37;;;;;;;7.43;4.80;;;;;;;7.28;100.00;102236.22;5055912;28;20632;-70
2021/03/30 02:10:14;;;;;;;7.10;5.30;;;;;;;7.23;100.00;102228.97;5055797;28;20178;-69
2021/03/30 02:12:44;;;;;;;7.73;4.80;;;;;;;7.22;100.00;102238.94;5038607;28;20218;-70
2021/03/30 02:15:13;;;;;;;5.57;4.87;;;;;;;7.20;100.00;102237.47;5055333;28;20719;-68
2021/03/30 02:18:14;;;;;;;7.70;4.83;;;;;;;7.17;100.00;102236.03;5068462;28;20215;-68
2021/03/30 02:20:52;;;;;;;5.57;4.20;;;;;;;7.18;100.00;102237.72;5037999;28;20215;-68
2021/03/30 02:23:22;;;;;;;6.63;4.70;;;;;;;7.21;100.00;102229.16;5050855;28;20242;-69
2021/03/30 02:25:48;;;;;;;8.00;5.30;;;;;;;7.26;100.00;102233.94;5051394;28;20211;-68
2021/03/30 02:28:17;;;;;;;6.57;5.50;;;;;;;7.23;100.00;102239.75;5068882;28;20171;-69
2021/03/30 02:30:48;;;;;;;7.47;4.80;;;;;;;7.14;100.00;102232.91;5035915;28;20223;-68
2021/03/30 02:33:18;;;;;;;6.57;4.90;;;;;;;7.14;100.00;102236.47;5035094;28;20254;-68
2021/03/30 02:35:47;;;;;;;7.60;4.67;;;;;;;7.13;100.00;102239.38;5067028;28;20680;-68
2021/03/30 02:38:15;;;;;;;6.60;4.80;;;;;;;6.99;100.00;102229.63;5035850;28;20207;-69
2021/03/30 02:40:44;;;;;;;6.80;4.80;;;;;;;6.94;100.00;102238.38;5052073;28;20730;-69
2021/03/30 02:43:10;;;;;;;7.30;5.33;;;;;;;7.15;100.00;102240.00;5062691;28;20230;-68
2021/03/30 02:45:36;;;;;;;5.60;4.93;;;;;;;6.96;100.00;102238.19;5034665;28;20744;-69
2021/03/30 02:48:02;;;;;;;8.83;5.17;;;;;;;6.89;100.00;102234.66;5049448;28;20198;-70
2021/03/30 02:50:30;;;;;;;5.97;4.90;;;;;;;6.84;100.00;102234.44;5051286;28;20611;-69
2021/03/30 02:52:56;;;;;;;8.10;5.50;;;;;;;6.82;100.00;102233.00;5034399;28;21012;-69
2021/03/30 02:55:24;;;;;;;8.83;5.60;;;;;;;7.12;100.00;102232.31;5050813;28;20227;-70
2021/03/30 02:57:49;;;;;;;8.30;6.03;;;;;;;7.15;100.00;102237.31;5052750;28;20238;-68
2021/03/30 03:00:15;;;;;;;10.97;6.43;;;;;;;6.88;100.00;102232.97;5018132;28;20180;-68
2021/03/30 03:02:46;;;;;;;9.03;5.87;;;;;;;6.99;100.00;102232.34;5036756;28;20198;-68
2021/03/30 03:05:15;;;;;;;9.73;5.97;;;;;;;7.00;100.00;102234.00;5059974;28;20252;-68
2021/03/30 03:07:42;;;;;;;9.03;6.77;;;;;;;7.06;100.00;102233.16;5038379;28;20183;-70
2021/03/30 03:10:10;;;;;;;6.33;4.47;;;;;;;7.02;100.00;102231.94;5034305;28;20195;-68
2021/03/30 03:12:38;;;;;;;6.10;4.57;;;;;;;6.93;100.00;102233.19;5058573;28;20207;-68
2021/03/30 03:15:08;;;;;;;5.73;5.10;;;;;;;6.86;100.00;102237.75;5070569;28;20190;-68
2021/03/30 03:17:36;;;;;;;7.67;5.23;;;;;;;6.80;100.00;102233.19;5070798;28;20215;-67
2021/03/30 03:20:03;;;;;;;8.37;4.93;;;;;;;6.73;100.00;102237.78;5038053;28;20210;-68
2021/03/30 03:22:28;;;;;;;8.00;5.43;;;;;;;6.61;100.00;102234.06;5050648;28;20246;-68
2021/03/30 03:24:54;;;;;;;6.93;5.10;;;;;;;6.55;100.00;102251.06;5054512;28;20685;-68
2021/03/30 03:27:21;;;;;;;8.17;5.87;;;;;;;6.49;100.00;102244.84;5037111;28;20214;-68
2021/03/30 03:29:49;;;;;;;9.17;5.67;;;;;;;6.36;100.00;102240.25;5070859;28;20787;-68
2021/03/30 03:32:15;;;;;;;9.10;5.63;;;;;;;6.49;100.00;102242.16;5036174;28;20229;-68
2021/03/30 03:34:41;;;;;;;8.90;6.30;;;;;;;6.41;100.00;102247.72;5054167;28;20179;-68
2021/03/30 03:37:09;;;;;;;8.47;5.50;;;;;;;6.32;100.00;102249.00;5069938;28;20222;-68
2021/03/30 03:39:35;;;;;;;8.37;5.87;;;;;;;6.37;100.00;102244.59;5069211;28;20190;-68
2021/03/30 03:42:00;;;;;;;7.63;5.73;;;;;;;6.47;100.00;102253.16;5052085;28;20643;-68
2021/03/30 03:44:27;;;;;;;8.87;5.60;;;;;;;6.40;100.00;102246.09;5070809;28;20187;-67
2021/03/30 03:46:53;;;;;;;7.27;5.50;;;;;;;6.41;100.00;102247.72;5034602;28;20246;-69
2021/03/30 03:49:23;;;;;;;7.67;5.70;;;;;;;6.39;100.00;102249.81;5306343;23;20192;-70
2021/03/30 03:51:56;;;;;;;8.10;6.40;;;;;;;6.24;100.00;102255.38;4980601;28;20248;-68
2021/03/30 03:54:21;;;;;;;7.83;5.70;;;;;;;6.12;100.00;102253.50;5004257;28;20268;-69
2021/03/30 03:56:48;;;;;;;11.73;6.00;;;;;;;6.21;100.00;102247.72;4970832;28;20234;-71
2021/03/30 03:59:19;;;;;;;6.90;5.03;;;;;;;6.10;100.00;102252.91;4986399;28;20190;-69
2021/03/30 04:01:55;;;;;;;9.43;5.73;;;;;;;6.13;100.00;102245.22;4954792;28;20218;-69
2021/03/30 04:04:58;;;;;;;8.80;6.17;;;;;;;6.10;100.00;102243.94;4940635;28;20237;-68
2021/03/30 04:07:33;;;;;;;9.70;6.50;;;;;;;6.09;100.00;102240.44;4986448;28;20246;-69
2021/03/30 04:10:00;;;;;;;8.17;5.90;;;;;;;6.25;100.00;102240.88;4988450;28;20186;-68
2021/03/30 04:12:28;;;;;;;9.10;6.47;;;;;;;6.32;100.00;102239.03;4951785;28;20809;-68
2021/03/30 04:14:54;;;;;;;9.93;6.50;;;;;;;6.28;100.00;102234.22;4979567;28;20182;-69
2021/03/30 04:17:22;;;;;;;9.67;6.13;;;;;;;6.19;100.00;102238.16;4953948;28;20218;-71
2021/03/30 04:19:47;;;;;;;7.20;5.80;;;;;;;6.12;100.00;102248.13;4971222;28;20186;-69
2021/03/30 04:22:14;;;;;;;8.77;6.37;;;;;;;6.22;100.00;102243.97;4970875;28;20214;-69
2021/03/30 04:24:43;;;;;;;9.37;7.30;;;;;;;6.28;100.00;102242.31;4971364;28;20651;-69
2021/03/30 04:27:12;;;;;;;9.43;6.30;;;;;;;6.20;100.00;102245.22;4986804;28;20758;-69
2021/03/30 04:29:41;;;;;;;10.17;6.50;;;;;;;6.02;100.00;102247.66;4970997;28;20197;-69
2021/03/30 04:32:10;;;;;;;9.70;5.93;;;;;;;6.09;100.00;102258.50;4985775;28;20234;-70
2021/03/30 04:34:38;;;;;;;11.30;7.57;;;;;;;6.05;100.00;102260.75;4987544;28;20215;-69
2021/03/30 04:37:04;;;;;;;8.37;7.13;;;;;;;5.93;100.00;102258.84;4986385;28;20222;-69
2021/03/30 04:39:32;;;;;;;9.00;7.07;;;;;;;5.85;100.00;102262.56;4986995;28;20660;-67
2021/03/30 04:42:00;;;;;;;10.93;7.80;;;;;;;5.79;100.00;102262.56;4969867;28;20235;-68
2021/03/30 04:44:25;;;;;;;9.67;7.43;;;;;;;5.87;100.00;102260.47;4972079;28;20218;-67
2021/03/30 04:46:51;;;;;;;12.27;7.43;;;;;;;5.94;100.00;102261.34;4954151;28;20222;-67
2021/03/30 04:49:17;;;;;;;11.03;7.60;;;;;;;6.00;100.00;102263.22;4986894;28;20186;-67
2021/03/30 04:51:44;;;;;;;11.70;8.07;;;;;;;6.03;100.00;102260.13;4987349;28;20225;-68
2021/03/30 04:54:10;;;;;;;11.07;8.83;;;;;;;6.11;100.00;102267.19;4988508;28;20737;-67
2021/03/30 04:56:37;;;;;;;11.00;8.57;;;;;;;6.02;100.00;102263.84;4973671;28;20312;-68
2021/03/30 04:59:03;;;;;;;11.57;8.57;;;;;;;6.01;100.00;102273.00;4972710;28;20684;-69
2021/03/30 05:01:31;;;;;;;12.00;8.70;;;;;;;6.03;100.00;102276.31;4971069;28;20598;-68
2021/03/30 05:04:00;;;;;;;10.63;7.13;;;;;;;6.13;100.00;102272.19;4971187;28;20229;-67
2021/03/30 05:06:25;;;;;;;11.47;7.97;;;;;;;6.12;100.00;102275.09;4996853;28;20862;-69
2021/03/30 05:08:52;;;;;;;13.07;9.43;;;;;;;6.16;100.00;102273.66;4983562;28;20190;-68
2021/03/30 05:11:17;;;;;;;11.73;8.27;;;;;;;6.19;100.00;102282.16;4974715;28;20262;-69
2021/03/30 05:13:45;;;;;;;11.43;8.40;;;;;;;6.22;100.00;102278.22;4941541;28;20646;-69
2021/03/30 05:16:13;;;;;;;12.80;8.83;;;;;;;6.19;100.00;102281.31;4981646;28;20230;-68
2021/03/30 05:18:39;;;;;;;11.80;8.23;;;;;;;6.14;100.00;102286.50;4954420;28;20206;-68
2021/03/30 05:21:04;;;;;;;10.07;8.33;;;;;;;6.20;100.00;102293.78;4986060;28;20218;-68
2021/03/30 05:23:30;;;;;;;10.60;8.23;;;;;;;6.21;100.00;102287.38;4985731;28;20214;-69
2021/03/30 05:25:56;;;;;;;11.23;8.50;;;;;;;6.24;100.00;102289.63;4969080;28;20218;-68
2021/03/30 05:28:21;;;;;;;11.30;8.90;;;;;;;6.17;100.00;102296.88;4953738;28;20643;-68
2021/03/30 05:30:47;;;;;;;17.27;10.90;;;;;;;6.14;100.00;102305.38;4966267;28;20227;-67
2021/03/30 05:33:20;;;;;;;12.67;8.73;;;;;;;6.24;100.00;102306.63;4966000;28;20218;-68
2021/03/30 05:35:45;;;;;;;12.50;8.13;;;;;;;6.41;100.00;102297.16;4970566;28;20649;-67
2021/03/30 05:38:12;;;;;;;9.60;7.57;;;;;;;6.55;100.00;102299.63;4979801;28;20223;-68
2021/03/30 05:40:37;;;;;;;11.00;8.27;;;;;;;6.47;100.00;102306.28;4984108;28;20276;-68
2021/03/30 05:43:04;;;;;;;7.87;7.00;;;;;;;6.55;100.00;102310.44;4968116;28;20252;-68
2021/03/30 05:45:29;;;;;;;12.23;8.60;;;;;;;6.68;100.00;102307.75;4969377;28;20723;-69
2021/03/30 05:47:56;;;;;;;8.90;7.50;;;;;;;6.88;100.00;102311.28;4986397;28;20693;-68
2021/03/30 05:50:28;;;;;;;10.70;7.83;;;;;;;6.86;100.00;102307.97;4969528;28;20198;-67
2021/03/30 05:53:06;;;;;;;10.07;8.17;;;;;;;7.06;100.00;102320.44;4953887;28;20218;-68
2021/03/30 05:55:39;;;;;;;11.33;8.70;;;;;;;7.31;100.00;102308.75;4984906;28;20218;-68
2021/03/30 05:58:06;;;;;;;14.23;8.70;;;;;;;7.29;100.00;102302.75;4971149;28;20236;-68
2021/03/30 06:00:40;;;;;;;11.97;8.97;;;;;;;7.40;100.00;102302.09;4985534;28;20226;-69
2021/03/30 06:03:22;;;;;;;13.17;9.27;;;;;;;7.54;100.00;102306.41;4970432;28;20244;-68
2021/03/30 06:05:55;;;;;;;10.07;7.47;;;;;;;7.83;100.00;102324.84;4969376;28;20617;-68
2021/03/30 06:08:26;;;;;;;11.10;8.00;;;;;;;8.07;100.00;102327.66;4969958;28;20187;-68
2021/03/30 06:10:56;;;;;;;12.80;7.73;;;;;;;8.23;99.90;102333.44;4969399;28;20229;-69
2021/03/30 06:13:49;;;;;;;8.37;6.73;;;;;;;8.28;98.45;102330.91;4969511;28;20229;-68
2021/03/30 06:16:24;;;;;;;11.33;7.07;;;;;;;8.52;97.63;102325.56;4970291;28;20588;-69
2021/03/30 06:19:20;;;;;;;7.67;6.07;;;;;;;8.73;95.20;102341.44;4969835;28;20700;-68
2021/03/30 06:21:48;;;;;;;8.83;6.27;;;;;;;8.90;94.38;102338.00;4972813;28;20711;-68
2021/03/30 06:24:22;;;;;;;7.13;5.83;;;;;;;8.99;93.28;102336.69;4953563;28;20225;-68
2021/03/30 06:26:49;;;;;;;7.10;6.40;;;;;;;9.14;91.69;102339.88;4970149;28;20304;-69
2021/03/30 06:29:27;;;;;;;8.70;6.53;;;;;;;9.32;90.17;102342.63;4985783;28;20562;-68
2021/03/30 06:31:53;;;;;;;10.33;5.93;;;;;;;9.43;88.47;102336.47;4969478;28;20221;-68
2021/03/30 06:34:25;;;;;;;8.57;6.00;;;;;;;9.61;88.55;102349.00;4985520;28;20210;-68
2021/03/30 06:36:51;;;;;;;7.60;6.00;;;;;;;9.78;87.79;102344.66;4968941;28;20226;-69
2021/03/30 06:39:17;;;;;;;9.40;6.60;;;;;;;9.83;86.68;102352.09;4969606;28;20187;-69
2021/03/30 06:41:55;;;;;;;9.37;5.97;;;;;;;9.98;85.51;102340.69;4973345;28;20249;-69
2021/03/30 06:44:27;;;;;;;9.10;7.20;;;;;;;10.21;83.57;102353.53;4969825;28;20210;-67
2021/03/30 06:46:59;;;;;;;8.23;6.37;;;;;;;10.28;82.83;102357.00;4941225;28;20234;-67
2021/03/30 06:49:26;;;;;;;14.03;6.40;;;;;;;10.31;83.64;102349.25;4989309;28;20190;-67
2021/03/30 06:51:52;;;;;;;10.30;6.30;;;;;;;10.54;82.23;102352.88;4987880;28;20612;-67
2021/03/30 06:54:20;;;;;;;8.33;6.30;;;;;;;10.56;79.71;102350.75;4969008;28;20199;-67
2021/03/30 06:56:45;;;;;;;10.70;6.53;;;;;;;10.68;78.77;102348.91;4969139;28;20716;-67
2021/03/30 06:59:11;;;;;;;9.47;6.33;;;;;;;10.86;78.24;102351.53;4954641;29;20241;-67
2021/03/30 07:01:37;;;;;;;9.13;6.50;;;;;;;10.99;77.19;102351.31;4952176;28;20229;-68
2021/03/30 07:04:05;;;;;;;9.37;6.27;;;;;;;11.02;77.45;102348.16;4952650;29;20850;-67
2021/03/30 07:06:30;;;;;;;9.30;6.80;;;;;;;11.19;76.59;102353.50;4952677;28;20230;-68
2021/03/30 07:08:56;;;;;;;9.83;6.30;;;;;;;11.36;75.31;102349.03;4985791;28;20180;-69
2021/03/30 07:11:22;;;;;;;10.20;6.83;;;;;;;11.39;75.30;102354.00;4954209;28;20227;-67
2021/03/30 07:13:47;;;;;;;9.70;7.40;;;;;;;11.52;74.74;102360.06;4985269;28;20241;-69
2021/03/30 07:16:27;;;;;;;7.70;6.47;;;;;;;11.58;75.53;102358.28;4988448;28;20233;-68
2021/03/30 07:18:55;;;;;;;7.67;6.53;;;;;;;11.79;73.07;102357.69;4974131;28;20202;-70
2021/03/30 07:21:22;;;;;;;8.37;6.57;;;;;;;11.95;72.13;102363.22;4972810;28;20229;-71
2021/03/30 07:23:56;;;;;;;11.47;7.03;;;;;;;12.10;70.51;102358.91;4973511;28;20217;-68
2021/03/30 07:26:43;;;;;;;8.87;7.33;;;;;;;12.29;68.38;102354.97;4973922;28;20226;-68
2021/03/30 07:29:23;;;;;;;10.70;6.33;;;;;;;12.51;67.15;102366.81;4974000;28;20209;-68
2021/03/30 07:32:10;;;;;;;9.03;6.47;;;;;;;12.79;63.63;102360.34;4956360;28;20249;-71
2021/03/30 07:35:09;;;;;;;10.27;6.67;;;;;;;12.70;65.45;102366.41;4990869;28;20182;-68
2021/03/30 07:37:44;;;;;;;11.00;6.87;;;;;;;12.84;65.38;102363.16;4989244;28;20301;-68
2021/03/30 07:40:10;;;;;;;11.33;7.30;;;;;;;13.03;64.29;102364.59;4973810;28;20186;-70
2021/03/30 07:42:38;;;;;;;9.70;7.30;;;;;;;13.34;62.26;102355.84;4973501;28;20309;-69
2021/03/30 07:45:07;;;;;;;10.20;6.60;;;;;;;13.31;60.04;102369.97;4970581;28;20191;-69
2021/03/30 07:47:36;;;;;;;11.07;7.10;;;;;;;13.48;59.49;102361.53;5000830;28;20197;-70
2021/03/30 07:50:04;;;;;;;8.30;6.20;;;;;;;13.56;58.65;102369.28;4957990;28;20202;-69
2021/03/30 07:52:30;;;;;;;11.30;6.90;;;;;;;13.68;58.86;102366.47;4973416;28;20835;-69
2021/03/30 07:55:23;;;;;;;11.00;6.50;;;;;;;13.86;57.27;102359.66;4990295;28;20187;-69
2021/03/30 07:58:16;;;;;;;9.10;6.40;;;;;;;13.84;58.38;102360.97;4974859;28;20317;-69
2021/03/30 08:00:42;;;;;;;10.63;6.73;;;;;;;14.08;57.20;102362.44;4972315;28;20607;-69
2021/03/30 08:03:07;;;;;;;9.80;6.33;;;;;;;14.04;56.98;102367.56;4987843;28;20211;-69
2021/03/30 08:05:33;;;;;;;10.70;6.30;;;;;;;14.19;57.44;102358.75;4972704;28;20234;-69
2021/03/30 08:07:59;;;;;;;10.43;7.03;;;;;;;14.32;56.83;102360.03;4988075;28;20178;-70
2021/03/30 08:10:34;;;;;;;10.27;6.73;;;;;;;14.68;56.66;102362.88;4986965;28;20233;-68
2021/03/30 08:13:25;;;;;;;12.07;6.70;;;;;;;14.53;57.80;102372.03;4986631;28;20688;-69
2021/03/30 08:15:54;;;;;;;9.40;7.00;;;;;;;14.57;57.52;102368.50;4965090;28;20748;-68
2021/03/30 08:18:21;;;;;;;11.77;6.90;;;;;;;14.72;57.11;102371.41;4971080;28;20737;-69
2021/03/30 08:20:58;;;;;;;11.88;6.40;;;;;;;14.87;56.86;102363.34;4987222;28;20345;-69
2021/03/30 08:23:25;;;;;;;13.63;6.80;;;;;;;14.94;58.08;102369.44;4985919;28;20202;-69
2021/03/30 08:25:52;;;;;;;10.77;6.67;;;;;;;14.88;58.34;102375.97;4986641;28;20670;-68
2021/03/30 08:28:59;;;;;;;8.67;6.20;;;;;;;14.95;57.94;102387.53;4987687;28;20178;-71
2021/03/30 08:31:29;;;;;;;9.67;6.77;;;;;;;15.09;57.90;102384.09;4987046;28;20226;-69
2021/03/30 08:33:59;;;;;;;10.23;7.03;;;;;;;15.00;56.90;102375.53;4986306;28;20301;-69
2021/03/30 08:36:31;;;;;;;7.90;6.30;;;;;;;15.10;57.27;102375.63;4986602;28;20605;-69
2021/03/30 08:39:21;;;;;;;10.10;6.90;;;;;;;15.21;56.59;102387.53;4986970;28;20269;-69
2021/03/30 08:41:49;;;;;;;9.32;6.20;;;;;;;15.22;57.29;102384.53;4980387;28;20226;-70
2021/03/30 08:44:32;;;;;;;9.52;6.85;;;;;;;15.41;56.83;102378.41;4987147;28;20257;-69
2021/03/30 08:46:59;;;;;;;8.37;6.67;;;;;;;15.58;56.07;102387.28;4976280;28;20221;-69
2021/03/30 08:49:40;;;;;;;11.30;7.13;;;;;;;15.69;56.92;102374.50;4986624;28;20237;-68
2021/03/30 08:52:13;;;;;;;8.97;6.97;;;;;;;15.99;56.34;102381.00;4970682;28;20226;-70
2021/03/30 08:54:46;;;;;;;9.27;6.38;;;;;;;15.68;59.03;102383.81;4970541;28;20221;-68
2021/03/30 08:57:16;;;;;;;8.93;6.57;;;;;;;15.82;57.97;102386.66;4985435;28;20322;-70
2021/03/30 08:59:42;;;;;;;9.82;7.00;;;;;;;15.99;57.10;102398.28;4970603;28;20676;-68
2021/03/30 09:02:08;;;;;;;10.60;6.57;;;;;;;16.06;57.05;102393.38;4968912;28;20272;-69
2021/03/30 09:04:38;;;;;;;9.83;6.73;;;;;;;15.95;57.94;102402.63;4986571;28;20202;-69
2021/03/30 09:07:07;;;;;;;10.35;7.07;;;;;;;16.03;57.78;102393.91;4986037;28;20241;-69
2021/03/30 09:09:34;;;;;;;9.55;6.85;;;;;;;15.96;57.64;102404.28;4970477;28;20198;-69
2021/03/30 09:12:20;;;;;;;10.85;6.68;;;;;;;15.90;57.63;102394.38;4985119;28;20230;-69
2021/03/30 09:14:47;;;;;;;7.80;6.40;;;;;;;16.24;56.77;102384.72;4970689;28;20194;-69
2021/03/30 09:17:18;;;;;;;9.57;6.90;;;;;;;16.56;56.77;102394.47;4954333;28;20238;-70
2021/03/30 09:19:46;;;;;;;8.00;6.20;;;;;;;16.54;56.97;102396.66;4986601;28;20186;-68
2021/03/30 09:27:22;;;;;;;9.32;6.45;;;;;;;16.75;57.50;102387.38;4986308;28;20233;-69
2021/03/30 09:29:48;;;;;;;11.52;7.25;;;;;;;17.09;57.20;102389.38;4986167;28;20233;-69
2021/03/30 09:32:14;;;;;;;9.95;6.40;;;;;;;17.04;55.59;102386.63;4984585;28;20233;-70
2021/03/30 09:34:39;;;;;;;9.35;6.97;;;;;;;16.93;55.42;102385.78;4986242;28;20197;-68
2021/03/30 09:37:05;;;;;;;9.40;6.45;;;;;;;16.99;57.49;102378.38;4985671;28;20229;-67
2021/03/30 09:39:35;;;;;;;9.68;6.72;;;;;;;17.23;57.04;102379.53;4970159;28;20202;-68
2021/03/30 09:42:00;;;;;;;9.20;6.15;;;;;;;17.38;57.35;102383.13;4968725;28;20229;-69
2021/03/30 09:44:26;;;;;;;11.32;6.40;;;;;;;17.37;57.35;102378.72;4970119;28;20206;-67
2021/03/30 09:46:55;;;;;;;9.60;6.15;;;;;;;17.36;58.21;102372.41;4937184;28;20608;-68
2021/03/30 09:49:22;;;;;;;9.23;6.28;;;;;;;17.23;58.38;102374.03;4985848;28;20209;-68
2021/03/30 09:51:52;;;;;;;9.27;6.30;;;;;;;17.23;60.12;102371.28;4984873;28;20233;-68
2021/03/30 09:54:39;;;;;;;7.18;5.65;;;;;;;17.42;58.74;102373.22;4970105;28;20261;-70
2021/03/30 09:57:16;;;;;;;9.48;5.90;;;;;;;17.64;59.11;102366.31;4985257;28;20229;-70
2021/03/30 09:59:51;;;;;;;6.93;5.57;;;;;;;17.95;58.98;102362.41;4985843;28;20221;-70
2021/03/30 10:02:19;;;;;;;8.07;5.40;;;;;;;17.91;57.80;102373.16;4984595;28;20229;-68
2021/03/30 10:04:47;;;;;;;8.15;5.47;;;;;;;18.10;58.17;102365.16;4986162;28;20198;-68
2021/03/30 10:07:16;;;;;;;8.10;4.97;;;;;;;18.23;56.56;102363.44;4984837;28;20221;-68
2021/03/30 10:10:15;;;;;;;8.63;5.53;;;;;;;17.93;57.49;102361.84;4969971;28;20273;-69
2021/03/30 10:12:55;;;;;;;9.43;5.35;;;;;;;18.31;57.16;102368.34;4947373;28;20750;-69
2021/03/30 10:15:40;;;;;;;6.47;5.13;;;;;;;18.60;56.46;102372.06;4985605;28;20194;-69
2021/03/30 10:18:11;;;;;;;6.80;4.70;;;;;;;18.64;55.48;102365.75;4971192;28;20264;-69
2021/03/30 10:20:44;;;;;;;6.03;4.90;;;;;;;18.57;54.95;102367.13;4989173;28;20716;-69
2021/03/30 10:23:17;;;;;;;5.40;4.70;;;;;;;18.70;54.48;102361.00;4971386;28;20234;-69
2021/03/30 10:25:45;;;;;;;6.53;4.57;;;;;;;18.70;54.71;102367.34;4986241;28;20678;-69
2021/03/30 10:28:23;;;;;;;7.05;4.72;;;;;;;19.03;54.18;102356.41;4985365;28;20187;-69
2021/03/30 10:30:56;;;;;;;6.70;4.82;;;;;;;18.99;53.30;102360.88;4990905;28;20279;-69
2021/03/30 10:33:44;;;;;;;6.70;4.75;;;;;;;18.94;52.63;102358.09;4953096;28;20278;-68
2021/03/30 10:36:14;;;;;;;7.47;4.82;;;;;;;19.08;52.88;102367.41;4953660;28;20314;-68
2021/03/30 10:39:08;;;;;;;6.45;4.80;;;;;;;19.57;52.38;102352.34;4953914;28;20602;-68
2021/03/30 10:41:38;;;;;;;6.07;4.75;;;;;;;19.39;51.28;102350.31;4936998;28;20348;-70
2021/03/30 10:44:04;;;;;;;7.72;5.10;;;;;;;19.66;50.84;102358.09;4954112;28;20207;-70
2021/03/30 10:46:30;;;;;;;6.68;5.10;;;;;;;19.82;50.81;102354.91;4971398;28;20309;-68
2021/03/30 10:49:15;;;;;;;7.88;4.70;;;;;;;19.80;49.58;102363.44;4970803;28;20183;-69
2021/03/30 10:51:44;;;;;;;7.72;4.75;;;;;;;19.80;49.18;102354.34;4970141;28;20233;-69
2021/03/30 10:54:12;;;;;;;7.75;4.70;;;;;;;19.89;49.36;102355.38;4949455;28;20716;-69
2021/03/30 10:56:38;;;;;;;9.35;5.93;;;;;;;19.85;49.29;102346.88;4971998;28;20726;-68
2021/03/30 10:59:15;;;;;;;8.50;5.07;;;;;;;20.03;49.13;102335.06;4972898;28;20584;-69
2021/03/30 11:01:43;;;;;;;8.27;5.10;;;;;;;20.00;48.84;102341.19;4971228;28;20452;-69
2021/03/30 11:04:09;;;;;;;10.80;5.35;;;;;;;19.83;48.05;102340.81;4988371;28;20210;-69
2021/03/30 11:06:37;;;;;;;7.07;5.20;;;;;;;20.00;47.74;102340.34;4956926;28;20225;-69
2021/03/30 11:09:10;;;;;;;6.57;4.80;;;;;;;20.03;48.06;102339.78;4973597;28;20196;-69
2021/03/30 11:11:36;;;;;;;9.10;4.85;;;;;;;20.29;47.43;102340.00;4953838;28;20312;-70
2021/03/30 11:14:02;;;;;;;6.80;4.40;;;;;;;20.16;47.73;102331.59;4988257;28;20216;-69
2021/03/30 11:16:28;;;;;;;9.73;5.15;;;;;;;20.31;46.92;102337.78;4972945;28;20230;-69
2021/03/30 11:18:53;;;;;;;7.88;4.80;;;;;;;20.28;46.53;102337.53;4956382;28;20234;-70
2021/03/30 11:21:21;;;;;;;6.95;5.10;;;;;;;20.16;47.12;102332.44;4971338;28;20272;-69
2021/03/30 11:23:47;;;;;;;7.85;4.80;;;;;;;20.22;46.94;102328.50;4972604;28;20268;-69
2021/03/30 11:26:14;;;;;;;7.05;4.63;;;;;;;20.25;46.18;102327.06;4989367;28;20218;-69
2021/03/30 11:28:43;;;;;;;8.38;4.57;;;;;;;20.30;46.05;102340.81;4954471;28;20476;-70
2021/03/30 11:31:18;;;;;;;6.72;4.55;;;;;;;20.23;45.70;102334.81;4971268;28;20312;-68
2021/03/30 11:33:49;;;;;;;15.75;10.68;;;;;;;20.44;45.41;102334.28;4986344;28;20256;-67
2021/03/30 11:36:19;;;;;;;7.93;4.68;;;;;;;20.52;45.60;102323.38;4998885;28;20539;-72
2021/03/30 11:38:44;;;;;;;5.32;4.38;;;;;;;20.68;45.15;102333.13;4971914;28;20242;-71
2021/03/30 11:41:12;;;;;;;7.57;5.20;;;;;;;20.57;45.77;102323.31;4970182;28;20238;-69
2021/03/30 11:43:40;;;;;;;8.40;4.85;;;;;;;20.49;46.00;102320.38;4971492;28;20349;-70
2021/03/30 11:46:08;;;;;;;7.70;5.13;;;;;;;20.58;44.74;102322.19;4954650;28;20301;-69